createdAt,value
2023-03-30T00:00:55.297Z,12.87
2023-03-30T00:03:23.094Z,13.07
2023-03-30T00:05:51.869Z,13.06
2023-03-30T00:08:19.330Z,13.29
2023-03-30T00:10:46.644Z,13.47
2023-03-30T00:13:14.394Z,13.49
2023-03-30T00:15:41.385Z,13.22
2023-03-30T00:18:09.380Z,13.14
2023-03-30T00:20:37.899Z,13.20
2023-03-30T00:23:04.788Z,13.53
2023-03-30T00:25:31.589Z,13.64
2023-03-30T00:27:58.353Z,13.56
2023-03-30T00:30:25.484Z,13.79
2023-03-30T00:32:52.320Z,13.74
2023-03-30T00:35:19.843Z,13.65
2023-03-30T00:37:49.632Z,13.99
2023-03-30T00:40:21.777Z,13.74
2023-03-30T00:42:48.846Z,13.89
2023-03-30T00:45:22.265Z,13.86
2023-03-30T00:48:06.987Z,13.90
2023-03-30T00:50:40.838Z,13.85
2023-03-30T00:53:12.994Z,14.05
2023-03-30T00:55:40.952Z,14.06
2023-03-30T00:58:10.300Z,14.17
2023-03-30T01:00:39.017Z,14.26
2023-03-30T01:03:15.181Z,14.26
2023-03-30T01:05:45.057Z,14.27
2023-03-30T01:08:14.164Z,14.18
2023-03-30T01:10:41.288Z,14.04
2023-03-30T01:13:08.117Z,14.11
2023-03-30T01:15:38.368Z,13.99
2023-03-30T01:18:24.277Z,13.82
2023-03-30T01:21:13.032Z,13.72
2023-03-30T01:23:53.975Z,14.06
2023-03-30T01:26:35.767Z,14.22
2023-03-30T01:29:28.961Z,14.36
2023-03-30T01:32:13.913Z,14.49
2023-03-30T01:34:58.033Z,14.74
2023-03-30T01:37:33.786Z,14.82
2023-03-30T01:40:05.737Z,14.93
2023-03-30T01:42:50.680Z,15.05
2023-03-30T01:45:23.426Z,15.35
2023-03-30T01:47:55.355Z,15.52
2023-03-30T01:50:29.852Z,15.41
2023-03-30T01:53:17.745Z,15.58
2023-03-30T01:56:08.181Z,15.53
2023-03-30T01:58:43.745Z,15.55
2023-03-30T02:01:14.671Z,15.29
2023-03-30T02:03:45.528Z,14.76
2023-03-30T02:06:20.730Z,14.66
2023-03-30T02:08:49.770Z,14.45
2023-03-30T02:11:16.575Z,14.16
2023-03-30T02:13:44.545Z,13.86
2023-03-30T02:16:16.547Z,13.91
2023-03-30T02:18:46.129Z,13.84
2023-03-30T02:21:13.253Z,13.66
2023-03-30T02:23:44.154Z,13.41
2023-03-30T02:26:13.332Z,13.29
2023-03-30T02:28:40.363Z,13.37
2023-03-30T02:31:13.305Z,13.34
2023-03-30T02:34:08.615Z,13.41
2023-03-30T02:36:55.585Z,13.46
2023-03-30T02:39:31.322Z,13.37
2023-03-30T02:42:13.255Z,13.19
2023-03-30T02:45:05.169Z,13.04
2023-03-30T02:47:42.417Z,12.95
2023-03-30T02:50:22.295Z,12.85
2023-03-30T02:53:02.080Z,12.84
2023-03-30T02:55:38.503Z,12.94
2023-03-30T02:58:42.697Z,12.80
2023-03-30T03:01:19.788Z,12.84
2023-03-30T03:03:58.416Z,12.75
2023-03-30T03:06:27.842Z,12.71
2023-03-30T03:08:56.388Z,12.68
2023-03-30T03:11:27.268Z,12.69
2023-03-30T03:13:53.999Z,12.70
2023-03-30T03:16:21.060Z,12.58
2023-03-30T03:19:03.827Z,12.42
2023-03-30T03:21:30.625Z,12.44
2023-03-30T03:23:57.491Z,12.46
2023-03-30T03:26:32.867Z,12.46
2023-03-30T03:29:00.285Z,12.44
2023-03-30T03:31:27.458Z,12.43
2023-03-30T03:33:54.377Z,12.35
2023-03-30T03:36:34.104Z,12.28
2023-03-30T03:39:02.259Z,12.26
2023-03-30T03:41:29.327Z,12.17
2023-03-30T03:43:56.277Z,12.12
2023-03-30T03:46:23.135Z,12.20
2023-03-30T03:48:50.018Z,12.28
2023-03-30T03:51:16.797Z,12.42
2023-03-30T03:53:43.544Z,12.58
2023-03-30T03:56:12.901Z,12.77
2023-03-30T03:58:39.779Z,12.69
2023-03-30T04:01:07.377Z,12.68
2023-03-30T04:03:34.435Z,12.61
2023-03-30T04:06:02.686Z,12.76
2023-03-30T04:08:30.789Z,13.08
2023-03-30T04:11:13.459Z,13.10
2023-03-30T04:13:58.844Z,12.97
2023-03-30T04:16:47.038Z,13.12
2023-03-30T04:19:32.543Z,12.95
2023-03-30T04:22:19.916Z,12.97
2023-03-30T04:24:59.337Z,12.85
2023-03-30T04:27:44.637Z,12.78
2023-03-30T04:30:38.886Z,12.69
2023-03-30T04:33:38.241Z,12.71
2023-03-30T04:36:27.912Z,12.62
2023-03-30T04:39:07.120Z,12.63
2023-03-30T04:41:52.482Z,12.58
2023-03-30T04:44:36.413Z,12.54
2023-03-30T04:47:18.624Z,12.58
2023-03-30T04:49:57.212Z,12.63
2023-03-30T04:52:42.399Z,12.74
2023-03-30T04:55:28.177Z,12.80
2023-03-30T04:58:18.243Z,12.86
2023-03-30T05:01:08.968Z,12.83
2023-03-30T05:03:55.761Z,12.82
2023-03-30T05:06:45.894Z,12.81
2023-03-30T05:09:16.834Z,12.79
2023-03-30T05:12:13.389Z,12.64
2023-03-30T05:15:09.730Z,12.82
2023-03-30T05:17:49.987Z,12.80
2023-03-30T05:20:26.460Z,12.94
2023-03-30T05:23:12.416Z,12.95
2023-03-30T05:25:52.172Z,12.89
2023-03-30T05:28:37.417Z,12.88
2023-03-30T05:31:28.067Z,12.81
2023-03-30T05:34:13.497Z,12.85
2023-03-30T05:36:48.677Z,12.86
2023-03-30T05:39:48.483Z,13.00
2023-03-30T05:42:39.081Z,12.97
2023-03-30T05:45:26.143Z,12.96
2023-03-30T05:48:09.599Z,13.00
2023-03-30T05:50:48.240Z,12.83
2023-03-30T05:53:38.057Z,12.89
2023-03-30T05:56:34.830Z,12.99
2023-03-30T05:59:37.519Z,13.21
2023-03-30T06:02:14.376Z,13.14
2023-03-30T06:04:42.237Z,13.17
2023-03-30T06:07:09.370Z,13.24
2023-03-30T06:09:36.443Z,13.31
2023-03-30T06:12:10.532Z,13.28
2023-03-30T06:14:38.585Z,13.36
2023-03-30T06:17:26.227Z,13.40
2023-03-30T06:19:53.665Z,13.44
2023-03-30T06:22:21.624Z,13.44
2023-03-30T06:25:11.084Z,13.45
2023-03-30T06:27:37.724Z,13.44
2023-03-30T06:30:05.654Z,13.37
2023-03-30T06:32:32.812Z,13.32
2023-03-30T06:35:21.617Z,13.40
2023-03-30T06:37:49.778Z,13.35
2023-03-30T06:40:17.523Z,13.49
2023-03-30T06:42:47.775Z,13.50
2023-03-30T06:45:21.897Z,13.58
2023-03-30T06:47:48.778Z,13.52
2023-03-30T06:50:16.180Z,13.47
2023-03-30T06:53:04.605Z,13.53
2023-03-30T06:55:39.840Z,13.65
2023-03-30T06:58:07.604Z,13.62
2023-03-30T07:00:35.250Z,13.57
2023-03-30T07:03:39.869Z,13.64
2023-03-30T07:06:21.068Z,13.70
2023-03-30T07:08:49.327Z,13.72
2023-03-30T07:11:22.652Z,13.66
2023-03-30T07:13:50.855Z,13.68
2023-03-30T07:16:18.428Z,13.70
2023-03-30T07:18:45.171Z,13.68
2023-03-30T07:21:11.896Z,13.70
2023-03-30T07:23:40.817Z,13.74
2023-03-30T07:26:09.735Z,13.82
2023-03-30T07:28:43.250Z,13.82
2023-03-30T07:31:13.994Z,13.75
2023-03-30T07:33:42.660Z,13.83
2023-03-30T07:36:13.790Z,14.11
2023-03-30T07:38:41.354Z,14.47
2023-03-30T07:41:14.352Z,15.50
2023-03-30T07:43:42.722Z,15.33
2023-03-30T07:46:12.122Z,14.97
2023-03-30T07:48:42.686Z,14.78
2023-03-30T07:51:12.483Z,14.79
2023-03-30T07:53:48.746Z,14.95
2023-03-30T07:56:23.562Z,15.42
2023-03-30T07:58:53.779Z,15.09
2023-03-30T08:01:24.572Z,15.02
2023-03-30T08:04:22.868Z,14.76
2023-03-30T08:06:52.885Z,15.06
2023-03-30T08:09:19.991Z,15.21
2023-03-30T08:11:47.005Z,15.20
2023-03-30T08:14:13.680Z,15.72
2023-03-30T08:16:40.430Z,16.30
2023-03-30T08:19:07.296Z,16.69
2023-03-30T08:21:34.024Z,16.36
2023-03-30T08:24:01.348Z,15.93
2023-03-30T08:26:28.784Z,15.55
2023-03-30T08:28:55.505Z,15.70
2023-03-30T08:31:22.497Z,15.58
2023-03-30T08:33:49.918Z,15.45
2023-03-30T08:36:16.703Z,15.38
2023-03-30T08:38:46.404Z,15.31
2023-03-30T08:41:21.971Z,15.42
2023-03-30T08:43:57.750Z,15.25
2023-03-30T08:46:25.298Z,15.12
2023-03-30T08:48:53.751Z,15.17
2023-03-30T08:51:32.472Z,15.20
2023-03-30T08:54:07.340Z,15.12
2023-03-30T08:56:54.964Z,15.19
2023-03-30T08:59:46.071Z,15.33
2023-03-30T09:02:21.579Z,15.46
2023-03-30T09:05:16.593Z,15.42
2023-03-30T09:08:08.414Z,15.18
2023-03-30T09:10:45.387Z,15.18
2023-03-30T09:13:20.647Z,15.08
2023-03-30T09:15:57.486Z,15.14
2023-03-30T09:18:32.082Z,15.59
2023-03-30T09:21:01.522Z,15.49
2023-03-30T09:23:31.301Z,15.60
2023-03-30T09:26:07.392Z,15.71
2023-03-30T09:29:03.914Z,15.59
2023-03-30T09:31:53.982Z,15.74
2023-03-30T09:34:28.368Z,15.53
2023-03-30T09:36:58.400Z,15.38
2023-03-30T09:39:27.782Z,15.36
2023-03-30T09:42:13.405Z,15.53
2023-03-30T09:45:07.177Z,15.59
2023-03-30T09:47:37.318Z,15.71
2023-03-30T09:50:16.067Z,15.91
2023-03-30T09:52:55.958Z,16.73
2023-03-30T09:55:22.574Z,16.99
2023-03-30T09:57:51.214Z,17.37
2023-03-30T10:00:29.501Z,16.55
2023-03-30T10:03:05.238Z,16.72
2023-03-30T10:05:34.907Z,17.25
2023-03-30T10:08:07.380Z,17.63
2023-03-30T10:10:36.325Z,17.07
2023-03-30T10:13:19.655Z,16.66
2023-03-30T10:15:51.773Z,16.06
2023-03-30T10:18:18.415Z,16.45
2023-03-30T10:21:15.307Z,17.85
2023-03-30T10:23:45.052Z,16.67
2023-03-30T10:26:20.115Z,17.03
2023-03-30T10:29:01.270Z,17.37
2023-03-30T10:31:28.478Z,18.34
2023-03-30T10:33:57.954Z,17.75
2023-03-30T10:36:29.917Z,17.13
2023-03-30T10:39:05.150Z,17.58
2023-03-30T10:41:32.058Z,17.92
2023-03-30T10:44:24.022Z,18.09
2023-03-30T10:46:53.932Z,17.38
2023-03-30T10:49:20.605Z,16.84
2023-03-30T10:51:47.689Z,17.50
2023-03-30T10:54:23.402Z,18.09
2023-03-30T10:57:17.694Z,18.15
2023-03-30T11:00:00.196Z,19.02
2023-03-30T11:02:30.202Z,18.97
2023-03-30T11:05:31.947Z,18.70
2023-03-30T11:08:02.198Z,17.76
2023-03-30T11:10:57.048Z,17.39
2023-03-30T11:13:38.520Z,17.59
2023-03-30T11:16:40.758Z,17.32
2023-03-30T11:19:16.554Z,15.79
2023-03-30T11:21:50.481Z,14.79
2023-03-30T11:24:17.063Z,14.55
2023-03-30T11:27:03.772Z,14.34
2023-03-30T11:29:33.489Z,14.16
2023-03-30T11:32:22.262Z,14.14
2023-03-30T11:35:17.403Z,13.89
2023-03-30T11:37:57.509Z,13.76
2023-03-30T11:40:32.575Z,13.50
2023-03-30T11:42:59.392Z,13.41
2023-03-30T11:45:48.577Z,13.45
2023-03-30T11:48:38.386Z,13.14
2023-03-30T11:51:20.108Z,12.79
2023-03-30T11:54:05.144Z,12.86
2023-03-30T11:56:43.167Z,12.70
2023-03-30T11:59:17.304Z,12.78
2023-03-30T12:01:43.961Z,12.72
2023-03-30T12:04:14.867Z,12.47
2023-03-30T12:07:09.949Z,12.35
2023-03-30T12:09:45.828Z,12.39
2023-03-30T12:12:18.508Z,12.10
2023-03-30T12:15:10.699Z,12.66
2023-03-30T12:18:03.226Z,12.98
2023-03-30T12:20:55.996Z,13.58
2023-03-30T12:23:28.368Z,13.61
2023-03-30T12:26:19.245Z,13.40
2023-03-30T12:29:26.146Z,13.15
2023-03-30T12:32:03.580Z,12.95
2023-03-30T12:34:40.931Z,12.86
2023-03-30T12:37:13.333Z,12.75
2023-03-30T12:39:51.705Z,12.52
2023-03-30T12:42:34.831Z,12.48
2023-03-30T12:45:23.174Z,11.94
2023-03-30T12:47:57.054Z,12.12
2023-03-30T12:50:23.968Z,12.11
2023-03-30T12:53:17.924Z,12.18
2023-03-30T12:56:11.501Z,12.45
2023-03-30T12:58:40.862Z,13.63
2023-03-30T13:01:33.066Z,14.08
2023-03-30T13:04:02.504Z,14.52
2023-03-30T13:06:47.195Z,14.22
2023-03-30T13:09:32.045Z,14.97
2023-03-30T13:11:59.165Z,15.03
2023-03-30T13:14:32.149Z,14.76
2023-03-30T13:16:58.809Z,15.04
2023-03-30T13:19:33.000Z,15.17
2023-03-30T13:22:03.378Z,15.27
2023-03-30T13:24:33.204Z,16.03
2023-03-30T13:27:14.922Z,16.03
2023-03-30T13:29:48.712Z,15.91
2023-03-30T13:32:20.514Z,16.02
2023-03-30T13:35:07.821Z,15.84
2023-03-30T13:37:43.689Z,16.25
2023-03-30T13:40:40.251Z,16.98
2023-03-30T13:43:23.182Z,16.12
2023-03-30T13:45:50.088Z,16.35
2023-03-30T13:48:44.948Z,16.31
2023-03-30T13:51:18.861Z,15.85
2023-03-30T13:54:15.145Z,15.58
2023-03-30T13:56:49.153Z,16.08
2023-03-30T13:59:21.528Z,16.48
2023-03-30T14:01:54.900Z,16.11
2023-03-30T14:04:22.270Z,16.72
2023-03-30T14:06:50.452Z,15.86
2023-03-30T14:09:25.348Z,16.91
2023-03-30T14:12:01.103Z,16.52
2023-03-30T14:14:40.135Z,16.56
2023-03-30T14:17:22.213Z,16.73
2023-03-30T14:20:30.879Z,16.24
2023-03-30T14:23:00.619Z,15.51
2023-03-30T14:25:35.619Z,15.89
2023-03-30T14:28:13.398Z,16.31
2023-03-30T14:30:59.374Z,15.93
2023-03-30T14:33:26.771Z,16.68
2023-03-30T14:35:59.244Z,16.80
2023-03-30T14:38:34.874Z,17.15
2023-03-30T14:41:07.098Z,17.38
2023-03-30T14:43:35.644Z,16.64
2023-03-30T14:46:05.766Z,16.53
2023-03-30T14:48:39.014Z,16.34
2023-03-30T14:51:21.524Z,16.26
2023-03-30T14:53:48.689Z,16.40
2023-03-30T14:56:18.055Z,16.97
2023-03-30T14:58:46.509Z,16.83
2023-03-30T15:01:18.536Z,17.09
2023-03-30T15:03:47.545Z,16.53
2023-03-30T15:06:24.533Z,16.62
2023-03-30T15:08:52.305Z,16.34
2023-03-30T15:11:26.493Z,16.43
2023-03-30T15:13:57.972Z,16.62
2023-03-30T15:16:30.106Z,16.85
2023-03-30T15:19:04.844Z,17.25
2023-03-30T15:21:35.432Z,17.40
2023-03-30T15:24:06.777Z,17.61
2023-03-30T15:26:34.361Z,17.53
2023-03-30T15:29:01.559Z,16.79
2023-03-30T15:31:28.830Z,16.82
2023-03-30T15:33:57.823Z,16.69
2023-03-30T15:36:46.564Z,16.43
2023-03-30T15:39:22.501Z,16.19
2023-03-30T15:42:01.853Z,16.04
2023-03-30T15:44:29.149Z,16.19
2023-03-30T15:46:57.761Z,15.64
2023-03-30T15:49:45.450Z,15.64
2023-03-30T15:52:23.024Z,15.28
2023-03-30T15:54:57.215Z,15.28
2023-03-30T15:57:29.849Z,15.46
2023-03-30T16:00:03.377Z,15.25
2023-03-30T16:02:57.942Z,15.52
2023-03-30T16:05:34.137Z,15.61
2023-03-30T16:08:05.431Z,15.97
2023-03-30T16:10:33.784Z,15.67
2023-03-30T16:13:01.408Z,15.42
2023-03-30T16:15:33.120Z,15.25
2023-03-30T16:17:59.909Z,14.90
2023-03-30T16:20:30.668Z,15.06
2023-03-30T16:22:57.824Z,14.89
2023-03-30T16:25:41.758Z,14.95
2023-03-30T16:28:15.566Z,14.79
2023-03-30T16:30:44.720Z,14.89
2023-03-30T16:33:11.844Z,14.80
2023-03-30T16:35:38.811Z,14.70
2023-03-30T16:38:05.896Z,14.71
2023-03-30T16:40:44.384Z,14.78
2023-03-30T16:43:11.816Z,14.72
2023-03-30T16:45:38.945Z,14.69
2023-03-30T16:48:05.993Z,14.67
2023-03-30T16:51:08.320Z,14.58
2023-03-30T16:53:35.073Z,14.68
2023-03-30T16:56:01.833Z,14.54
2023-03-30T16:58:28.647Z,14.34
2023-03-30T17:01:03.295Z,14.27
2023-03-30T17:03:31.843Z,14.20
2023-03-30T17:05:58.918Z,14.31
2023-03-30T17:08:28.466Z,14.24
2023-03-30T17:11:00.548Z,14.06
2023-03-30T17:13:28.594Z,13.97
2023-03-30T17:15:56.014Z,13.95
2023-03-30T17:18:24.158Z,13.77
2023-03-30T17:20:53.291Z,13.84
2023-03-30T17:23:21.773Z,13.74
2023-03-30T17:25:49.649Z,13.67
2023-03-30T17:28:38.812Z,13.59
2023-03-30T17:31:12.682Z,13.58
2023-03-30T17:33:39.691Z,13.56
2023-03-30T17:36:14.230Z,13.66
2023-03-30T17:38:43.428Z,13.60
2023-03-30T17:41:15.669Z,13.62
2023-03-30T17:43:43.786Z,13.53
2023-03-30T17:46:15.915Z,13.56
2023-03-30T17:48:42.871Z,13.45
2023-03-30T17:51:10.257Z,13.22
2023-03-30T17:53:37.352Z,13.05
2023-03-30T17:56:04.475Z,13.05
2023-03-30T17:58:34.387Z,12.77
2023-03-30T18:01:03.593Z,12.75
2023-03-30T18:03:30.637Z,12.77
2023-03-30T18:05:59.596Z,12.76
2023-03-30T18:08:27.311Z,12.80
2023-03-30T18:10:56.001Z,12.85
2023-03-30T18:13:25.428Z,12.73
2023-03-30T18:15:54.993Z,12.76
2023-03-30T18:18:27.120Z,12.75
2023-03-30T18:21:05.381Z,12.75
2023-03-30T18:23:34.533Z,12.67
2023-03-30T18:26:02.411Z,12.54
2023-03-30T18:28:31.580Z,12.56
2023-03-30T18:31:01.869Z,12.62
2023-03-30T18:33:28.933Z,12.57
2023-03-30T18:36:05.271Z,12.51
2023-03-30T18:38:33.508Z,12.35
2023-03-30T18:41:01.547Z,12.40
2023-03-30T18:43:28.427Z,12.41
2023-03-30T18:46:00.829Z,12.48
2023-03-30T18:48:28.733Z,12.45
2023-03-30T18:50:55.791Z,12.37
2023-03-30T18:53:24.739Z,12.34
2023-03-30T18:55:53.809Z,12.28
2023-03-30T18:58:23.298Z,12.25
2023-03-30T19:00:51.857Z,12.17
2023-03-30T19:03:20.195Z,12.11
2023-03-30T19:05:47.707Z,12.11
2023-03-30T19:08:23.585Z,12.04
2023-03-30T19:10:52.904Z,11.95
2023-03-30T19:13:20.854Z,12.00
2023-03-30T19:15:49.711Z,11.91
2023-03-30T19:18:18.088Z,11.85
2023-03-30T19:20:45.398Z,11.80
2023-03-30T19:23:14.151Z,11.80
2023-03-30T19:25:41.409Z,11.83
2023-03-30T19:28:08.704Z,11.82
2023-03-30T19:30:39.277Z,11.78
2023-03-30T19:33:09.811Z,11.79
2023-03-30T19:35:36.991Z,11.84
2023-03-30T19:38:04.109Z,11.79
2023-03-30T19:40:30.851Z,11.75
2023-03-30T19:42:57.470Z,11.70
2023-03-30T19:45:24.515Z,11.68
2023-03-30T19:47:52.320Z,11.68
2023-03-30T19:50:20.678Z,11.68
2023-03-30T19:52:50.281Z,11.65
2023-03-30T19:55:19.097Z,11.53
2023-03-30T19:57:46.477Z,11.54
2023-03-30T20:00:16.062Z,11.47
2023-03-30T20:02:45.669Z,11.47
2023-03-30T20:05:13.262Z,11.47
2023-03-30T20:07:41.151Z,11.50
2023-03-30T20:10:10.496Z,11.48
2023-03-30T20:12:38.004Z,11.44
2023-03-30T20:15:06.666Z,11.42
2023-03-30T20:17:34.411Z,11.38
2023-03-30T20:20:07.245Z,11.36
2023-03-30T20:22:36.695Z,11.40
2023-03-30T20:25:06.703Z,11.43
2023-03-30T20:27:34.067Z,11.38
2023-03-30T20:30:01.281Z,11.36
2023-03-30T20:32:28.096Z,11.39
2023-03-30T20:34:54.841Z,11.42
2023-03-30T20:37:21.595Z,11.37
2023-03-30T20:39:50.067Z,11.40
2023-03-30T20:42:18.333Z,11.35
2023-03-30T20:44:50.459Z,11.44
2023-03-30T20:47:18.073Z,11.50
2023-03-30T20:49:46.482Z,11.49
2023-03-30T20:52:13.607Z,11.50
2023-03-30T20:54:41.309Z,11.53
2023-03-30T20:57:08.113Z,11.53
2023-03-30T20:59:34.897Z,11.55
2023-03-30T21:02:03.683Z,11.40
2023-03-30T21:04:30.557Z,11.43
2023-03-30T21:06:57.535Z,11.39
2023-03-30T21:09:24.380Z,11.48
2023-03-30T21:11:51.071Z,11.40
2023-03-30T21:14:18.163Z,11.51
2023-03-30T21:16:44.984Z,11.53
2023-03-30T21:19:12.356Z,11.46
2023-03-30T21:21:39.179Z,11.56
2023-03-30T21:24:06.666Z,11.46
2023-03-30T21:26:33.350Z,11.54
2023-03-30T21:29:00.570Z,11.57
2023-03-30T21:31:27.453Z,11.54
2023-03-30T21:33:54.334Z,11.53
2023-03-30T21:36:21.133Z,11.46
2023-03-30T21:38:47.934Z,11.40
2023-03-30T21:41:19.494Z,11.34
2023-03-30T21:43:47.687Z,11.44
2023-03-30T21:46:20.583Z,11.36
2023-03-30T21:48:51.143Z,11.25
2023-03-30T21:51:22.137Z,11.24
2023-03-30T21:53:51.283Z,11.15
2023-03-30T21:56:20.125Z,11.01
2023-03-30T21:58:46.844Z,11.05
2023-03-30T22:01:13.954Z,10.99
2023-03-30T22:03:42.442Z,10.99
2023-03-30T22:06:11.547Z,10.90
2023-03-30T22:08:38.974Z,10.82
2023-03-30T22:11:12.961Z,10.79
2023-03-30T22:13:39.883Z,10.83
2023-03-30T22:16:18.905Z,10.87
2023-03-30T22:18:46.522Z,10.92
2023-03-30T22:21:17.578Z,10.99
2023-03-30T22:23:44.937Z,10.91
2023-03-30T22:26:12.753Z,10.93
2023-03-30T22:28:39.788Z,10.95
2023-03-30T22:31:11.359Z,11.01
2023-03-30T22:33:38.807Z,11.04
2023-03-30T22:36:07.754Z,11.07
2023-03-30T22:38:34.619Z,11.06
2023-03-30T22:41:06.393Z,11.07
2023-03-30T22:43:33.893Z,11.03
2023-03-30T22:46:01.467Z,11.03
2023-03-30T22:48:28.297Z,10.92
2023-03-30T22:50:54.965Z,10.90
2023-03-30T22:53:21.583Z,10.92
2023-03-30T22:55:48.375Z,10.90
2023-03-30T22:58:15.890Z,10.92
2023-03-30T23:00:42.667Z,10.85
2023-03-30T23:03:09.807Z,10.91
2023-03-30T23:05:37.329Z,10.91
2023-03-30T23:08:04.267Z,10.97
2023-03-30T23:10:34.011Z,10.98
2023-03-30T23:13:00.834Z,10.95
2023-03-30T23:15:29.428Z,10.88
2023-03-30T23:17:56.214Z,10.85
2023-03-30T23:20:23.062Z,10.79
2023-03-30T23:22:49.892Z,10.69
2023-03-30T23:25:16.813Z,10.66
2023-03-30T23:27:43.519Z,10.70
2023-03-30T23:30:10.824Z,10.69
2023-03-30T23:32:37.734Z,10.68
2023-03-30T23:35:04.674Z,10.60
2023-03-30T23:37:32.714Z,10.63
2023-03-30T23:40:01.779Z,10.64
2023-03-30T23:42:29.212Z,10.57
2023-03-30T23:44:56.211Z,10.59
2023-03-30T23:47:23.374Z,10.53
2023-03-30T23:49:50.052Z,10.49
2023-03-30T23:52:16.825Z,10.49
2023-03-30T23:54:43.815Z,10.51
2023-03-30T23:57:10.536Z,10.47
2023-03-30T23:59:37.582Z,10.42
